< < Back
Terminal Aerodrome Forecast


Current Version              Previous Versions:   1  2  3  4  5  6  7  8  9  

Terminal Aerodrome Forecast

552
FTUS42 KFFC 292325
TAFFTY
TAF
KFTY 292325Z 3000/3024 07010KT P6SM FEW045 SCT250
     FM300300 07004KT P6SM FEW250
     FM301500 08005KT P6SM FEW030
     FM301800 07010G16KT P6SM SCT045 SCT250=

Latest METAR

541
SAUS70 KWBC 301800 RRG
MTRFTY
METAR KFTY 301753Z 08007KT 10SM FEW060 31/18 A3008 RMK AO2 SLP174
T03110178 10317 20217 58013


USA.gov is the U.S. government's official web portal to all federal, state and local government web resources and services.